sensor_id;sensor_type;location;lat;lon;timestamp;P1;durP1;ratioP1;P2;durP2;ratioP2
12774;SDS011;6451;42.630;23.382;2023-12-04T00:01:54;7.70;;;5.60;;
12774;SDS011;6451;42.630;23.382;2023-12-04T00:04:21;8.73;;;5.70;;
12774;SDS011;6451;42.630;23.382;2023-12-04T00:06:49;6.03;;;4.83;;
12774;SDS011;6451;42.630;23.382;2023-12-04T00:09:16;7.13;;;5.83;;
12774;SDS011;6451;42.630;23.382;2023-12-04T00:11:44;5.53;;;4.87;;
12774;SDS011;6451;42.630;23.382;2023-12-04T00:14:11;6.30;;;5.07;;
12774;SDS011;6451;42.630;23.382;2023-12-04T00:16:41;6.33;;;5.50;;
12774;SDS011;6451;42.630;23.382;2023-12-04T00:19:08;6.80;;;5.37;;
12774;SDS011;6451;42.630;23.382;2023-12-04T00:21:36;6.80;;;5.17;;
12774;SDS011;6451;42.630;23.382;2023-12-04T00:24:04;9.23;;;5.90;;
12774;SDS011;6451;42.630;23.382;2023-12-04T00:26:31;6.37;;;4.93;;
12774;SDS011;6451;42.630;23.382;2023-12-04T00:28:59;7.80;;;5.87;;
12774;SDS011;6451;42.630;23.382;2023-12-04T00:31:26;7.70;;;5.07;;
12774;SDS011;6451;42.630;23.382;2023-12-04T00:33:54;8.03;;;5.70;;
12774;SDS011;6451;42.630;23.382;2023-12-04T00:36:21;6.33;;;5.03;;
12774;SDS011;6451;42.630;23.382;2023-12-04T00:38:48;7.43;;;5.60;;
12774;SDS011;6451;42.630;23.382;2023-12-04T00:41:15;8.37;;;6.50;;
12774;SDS011;6451;42.630;23.382;2023-12-04T00:43:42;6.77;;;4.67;;
12774;SDS011;6451;42.630;23.382;2023-12-04T00:46:09;6.20;;;4.40;;
12774;SDS011;6451;42.630;23.382;2023-12-04T00:48:37;6.60;;;5.03;;
12774;SDS011;6451;42.630;23.382;2023-12-04T00:51:08;7.00;;;5.20;;
12774;SDS011;6451;42.630;23.382;2023-12-04T00:53:37;7.07;;;5.17;;
12774;SDS011;6451;42.630;23.382;2023-12-04T00:56:05;7.13;;;5.43;;
12774;SDS011;6451;42.630;23.382;2023-12-04T00:58:32;7.17;;;4.83;;
12774;SDS011;6451;42.630;23.382;2023-12-04T01:00:59;6.53;;;4.77;;
12774;SDS011;6451;42.630;23.382;2023-12-04T01:03:26;5.87;;;4.63;;
12774;SDS011;6451;42.630;23.382;2023-12-04T01:05:53;8.60;;;6.17;;
12774;SDS011;6451;42.630;23.382;2023-12-04T01:08:21;9.77;;;6.60;;
12774;SDS011;6451;42.630;23.382;2023-12-04T01:10:49;7.07;;;5.53;;
12774;SDS011;6451;42.630;23.382;2023-12-04T01:13:16;5.87;;;4.27;;
12774;SDS011;6451;42.630;23.382;2023-12-04T01:15:43;8.00;;;5.27;;
12774;SDS011;6451;42.630;23.382;2023-12-04T01:18:16;9.97;;;5.83;;
12774;SDS011;6451;42.630;23.382;2023-12-04T01:20:43;8.33;;;5.60;;
12774;SDS011;6451;42.630;23.382;2023-12-04T01:23:10;9.03;;;5.47;;
12774;SDS011;6451;42.630;23.382;2023-12-04T01:25:39;7.67;;;5.40;;
12774;SDS011;6451;42.630;23.382;2023-12-04T01:28:05;8.07;;;6.33;;
12774;SDS011;6451;42.630;23.382;2023-12-04T01:30:32;6.63;;;4.97;;
12774;SDS011;6451;42.630;23.382;2023-12-04T01:33:04;8.70;;;5.93;;
12774;SDS011;6451;42.630;23.382;2023-12-04T01:35:32;6.10;;;4.90;;
12774;SDS011;6451;42.630;23.382;2023-12-04T01:37:59;6.77;;;5.57;;
12774;SDS011;6451;42.630;23.382;2023-12-04T01:40:26;8.77;;;5.83;;
12774;SDS011;6451;42.630;23.382;2023-12-04T01:42:56;6.43;;;5.40;;
12774;SDS011;6451;42.630;23.382;2023-12-04T01:45:24;8.50;;;6.17;;
12774;SDS011;6451;42.630;23.382;2023-12-04T01:47:53;7.63;;;5.60;;
12774;SDS011;6451;42.630;23.382;2023-12-04T01:50:22;7.60;;;6.03;;
12774;SDS011;6451;42.630;23.382;2023-12-04T01:52:50;8.23;;;6.43;;
12774;SDS011;6451;42.630;23.382;2023-12-04T01:55:18;8.43;;;6.77;;
12774;SDS011;6451;42.630;23.382;2023-12-04T01:57:47;9.30;;;5.80;;
12774;SDS011;6451;42.630;23.382;2023-12-04T02:00:17;6.70;;;5.57;;
12774;SDS011;6451;42.630;23.382;2023-12-04T02:02:46;7.20;;;5.30;;
12774;SDS011;6451;42.630;23.382;2023-12-04T02:05:13;8.40;;;5.60;;
12774;SDS011;6451;42.630;23.382;2023-12-04T02:07:41;8.27;;;6.10;;
12774;SDS011;6451;42.630;23.382;2023-12-04T02:10:08;8.47;;;5.83;;
12774;SDS011;6451;42.630;23.382;2023-12-04T02:12:35;7.57;;;5.47;;
12774;SDS011;6451;42.630;23.382;2023-12-04T02:15:03;9.23;;;6.00;;
12774;SDS011;6451;42.630;23.382;2023-12-04T02:17:32;9.40;;;6.50;;
12774;SDS011;6451;42.630;23.382;2023-12-04T02:20:00;9.40;;;5.93;;
12774;SDS011;6451;42.630;23.382;2023-12-04T02:22:28;8.37;;;6.03;;
12774;SDS011;6451;42.630;23.382;2023-12-04T02:24:57;9.03;;;5.67;;
12774;SDS011;6451;42.630;23.382;2023-12-04T02:27:28;6.13;;;4.43;;
12774;SDS011;6451;42.630;23.382;2023-12-04T02:30:00;7.40;;;5.07;;
12774;SDS011;6451;42.630;23.382;2023-12-04T02:32:34;6.70;;;4.87;;
12774;SDS011;6451;42.630;23.382;2023-12-04T02:35:11;7.93;;;5.63;;
12774;SDS011;6451;42.630;23.382;2023-12-04T02:37:44;8.57;;;5.83;;
12774;SDS011;6451;42.630;23.382;2023-12-04T02:40:14;8.07;;;5.97;;
12774;SDS011;6451;42.630;23.382;2023-12-04T02:42:41;6.63;;;5.30;;
12774;SDS011;6451;42.630;23.382;2023-12-04T02:45:09;7.33;;;5.70;;
12774;SDS011;6451;42.630;23.382;2023-12-04T02:47:36;8.77;;;6.00;;
12774;SDS011;6451;42.630;23.382;2023-12-04T02:50:03;7.17;;;5.30;;
12774;SDS011;6451;42.630;23.382;2023-12-04T02:52:30;8.53;;;5.70;;
12774;SDS011;6451;42.630;23.382;2023-12-04T02:54:57;7.63;;;5.20;;
12774;SDS011;6451;42.630;23.382;2023-12-04T02:57:26;9.27;;;5.80;;
12774;SDS011;6451;42.630;23.382;2023-12-04T02:59:53;8.00;;;5.50;;
12774;SDS011;6451;42.630;23.382;2023-12-04T03:02:20;7.83;;;5.17;;
12774;SDS011;6451;42.630;23.382;2023-12-04T03:04:47;7.60;;;5.93;;
12774;SDS011;6451;42.630;23.382;2023-12-04T03:07:14;9.03;;;5.97;;
12774;SDS011;6451;42.630;23.382;2023-12-04T03:09:41;8.90;;;6.07;;
12774;SDS011;6451;42.630;23.382;2023-12-04T03:12:09;7.60;;;5.27;;
12774;SDS011;6451;42.630;23.382;2023-12-04T03:14:39;7.20;;;5.47;;
12774;SDS011;6451;42.630;23.382;2023-12-04T03:17:12;5.80;;;4.60;;
12774;SDS011;6451;42.630;23.382;2023-12-04T03:19:41;5.23;;;4.43;;
12774;SDS011;6451;42.630;23.382;2023-12-04T03:22:07;6.23;;;5.10;;
12774;SDS011;6451;42.630;23.382;2023-12-04T03:24:34;8.43;;;6.33;;
12774;SDS011;6451;42.630;23.382;2023-12-04T03:27:01;7.67;;;6.00;;
12774;SDS011;6451;42.630;23.382;2023-12-04T03:29:29;7.93;;;5.47;;
12774;SDS011;6451;42.630;23.382;2023-12-04T03:31:58;8.43;;;6.10;;
12774;SDS011;6451;42.630;23.382;2023-12-04T03:34:25;8.07;;;5.93;;
12774;SDS011;6451;42.630;23.382;2023-12-04T03:36:52;7.97;;;5.83;;
12774;SDS011;6451;42.630;23.382;2023-12-04T03:39:19;6.63;;;4.93;;
12774;SDS011;6451;42.630;23.382;2023-12-04T03:41:52;9.77;;;6.03;;
12774;SDS011;6451;42.630;23.382;2023-12-04T03:44:20;8.30;;;6.60;;
12774;SDS011;6451;42.630;23.382;2023-12-04T03:46:47;8.17;;;5.87;;
12774;SDS011;6451;42.630;23.382;2023-12-04T03:49:15;6.47;;;4.80;;
12774;SDS011;6451;42.630;23.382;2023-12-04T03:51:42;7.43;;;5.97;;
12774;SDS011;6451;42.630;23.382;2023-12-04T03:54:11;8.47;;;5.97;;
12774;SDS011;6451;42.630;23.382;2023-12-04T03:56:39;8.10;;;6.07;;
12774;SDS011;6451;42.630;23.382;2023-12-04T03:59:08;10.43;;;6.30;;
12774;SDS011;6451;42.630;23.382;2023-12-04T04:01:40;7.37;;;5.93;;
12774;SDS011;6451;42.630;23.382;2023-12-04T04:04:07;8.37;;;5.67;;
12774;SDS011;6451;42.630;23.382;2023-12-04T04:06:36;7.63;;;5.83;;
12774;SDS011;6451;42.630;23.382;2023-12-04T04:09:03;9.43;;;6.03;;
12774;SDS011;6451;42.630;23.382;2023-12-04T04:11:31;7.97;;;5.90;;
12774;SDS011;6451;42.630;23.382;2023-12-04T04:13:57;7.03;;;5.47;;
12774;SDS011;6451;42.630;23.382;2023-12-04T04:16:24;9.27;;;6.33;;
12774;SDS011;6451;42.630;23.382;2023-12-04T04:18:52;7.80;;;5.90;;
12774;SDS011;6451;42.630;23.382;2023-12-04T04:21:19;7.80;;;6.10;;
12774;SDS011;6451;42.630;23.382;2023-12-04T04:23:48;8.37;;;5.63;;
12774;SDS011;6451;42.630;23.382;2023-12-04T04:26:14;7.77;;;5.60;;
12774;SDS011;6451;42.630;23.382;2023-12-04T04:28:41;6.87;;;5.27;;
12774;SDS011;6451;42.630;23.382;2023-12-04T04:31:09;8.17;;;6.13;;
12774;SDS011;6451;42.630;23.382;2023-12-04T04:33:41;8.13;;;6.03;;
12774;SDS011;6451;42.630;23.382;2023-12-04T04:36:11;8.03;;;5.77;;
12774;SDS011;6451;42.630;23.382;2023-12-04T04:38:39;6.80;;;5.33;;
12774;SDS011;6451;42.630;23.382;2023-12-04T04:41:13;7.17;;;5.10;;
12774;SDS011;6451;42.630;23.382;2023-12-04T04:43:41;8.67;;;6.13;;
12774;SDS011;6451;42.630;23.382;2023-12-04T04:46:15;8.37;;;6.23;;
12774;SDS011;6451;42.630;23.382;2023-12-04T04:48:52;6.70;;;5.23;;
12774;SDS011;6451;42.630;23.382;2023-12-04T04:51:19;6.70;;;5.20;;
12774;SDS011;6451;42.630;23.382;2023-12-04T04:53:46;6.13;;;5.07;;
12774;SDS011;6451;42.630;23.382;2023-12-04T04:56:15;7.90;;;5.07;;
12774;SDS011;6451;42.630;23.382;2023-12-04T04:58:43;7.67;;;5.70;;
12774;SDS011;6451;42.630;23.382;2023-12-04T05:01:10;5.37;;;4.00;;
12774;SDS011;6451;42.630;23.382;2023-12-04T05:03:36;9.30;;;5.97;;
12774;SDS011;6451;42.630;23.382;2023-12-04T05:06:04;7.43;;;5.47;;
12774;SDS011;6451;42.630;23.382;2023-12-04T05:08:31;7.53;;;5.43;;
12774;SDS011;6451;42.630;23.382;2023-12-04T05:11:05;7.53;;;5.40;;
12774;SDS011;6451;42.630;23.382;2023-12-04T05:13:33;10.40;;;6.10;;
12774;SDS011;6451;42.630;23.382;2023-12-04T05:16:00;7.03;;;5.30;;
12774;SDS011;6451;42.630;23.382;2023-12-04T05:18:27;7.40;;;5.63;;
12774;SDS011;6451;42.630;23.382;2023-12-04T05:20:54;6.17;;;4.90;;
12774;SDS011;6451;42.630;23.382;2023-12-04T05:23:21;6.43;;;5.10;;
12774;SDS011;6451;42.630;23.382;2023-12-04T05:25:48;6.73;;;5.07;;
12774;SDS011;6451;42.630;23.382;2023-12-04T05:28:18;6.77;;;4.70;;
12774;SDS011;6451;42.630;23.382;2023-12-04T05:30:46;8.30;;;5.20;;
12774;SDS011;6451;42.630;23.382;2023-12-04T05:33:13;5.83;;;4.43;;
12774;SDS011;6451;42.630;23.382;2023-12-04T05:35:48;6.23;;;5.07;;
12774;SDS011;6451;42.630;23.382;2023-12-04T05:38:16;8.30;;;5.60;;
12774;SDS011;6451;42.630;23.382;2023-12-04T05:40:44;6.30;;;5.20;;
12774;SDS011;6451;42.630;23.382;2023-12-04T05:43:12;8.13;;;5.60;;
12774;SDS011;6451;42.630;23.382;2023-12-04T05:45:39;6.63;;;5.10;;
12774;SDS011;6451;42.630;23.382;2023-12-04T05:48:07;7.10;;;5.53;;
12774;SDS011;6451;42.630;23.382;2023-12-04T05:50:34;6.10;;;4.80;;
12774;SDS011;6451;42.630;23.382;2023-12-04T05:53:03;8.43;;;6.00;;
12774;SDS011;6451;42.630;23.382;2023-12-04T05:55:30;8.10;;;5.63;;
12774;SDS011;6451;42.630;23.382;2023-12-04T05:58:03;8.80;;;5.63;;
12774;SDS011;6451;42.630;23.382;2023-12-04T06:00:32;8.57;;;6.20;;
12774;SDS011;6451;42.630;23.382;2023-12-04T06:03:00;8.60;;;6.10;;
12774;SDS011;6451;42.630;23.382;2023-12-04T06:05:29;9.80;;;5.40;;
12774;SDS011;6451;42.630;23.382;2023-12-04T06:07:56;8.73;;;6.10;;
12774;SDS011;6451;42.630;23.382;2023-12-04T06:10:23;10.80;;;6.87;;
12774;SDS011;6451;42.630;23.382;2023-12-04T06:12:53;10.10;;;6.70;;
12774;SDS011;6451;42.630;23.382;2023-12-04T06:15:22;9.43;;;7.07;;
12774;SDS011;6451;42.630;23.382;2023-12-04T06:17:49;12.13;;;7.73;;
12774;SDS011;6451;42.630;23.382;2023-12-04T06:20:19;9.97;;;6.97;;
12774;SDS011;6451;42.630;23.382;2023-12-04T06:22:47;8.90;;;6.33;;
12774;SDS011;6451;42.630;23.382;2023-12-04T06:25:15;9.70;;;6.70;;
12774;SDS011;6451;42.630;23.382;2023-12-04T06:27:44;10.37;;;5.90;;
12774;SDS011;6451;42.630;23.382;2023-12-04T06:30:12;12.17;;;6.83;;
12774;SDS011;6451;42.630;23.382;2023-12-04T06:32:40;9.97;;;7.13;;
12774;SDS011;6451;42.630;23.382;2023-12-04T06:35:08;9.93;;;7.33;;
12774;SDS011;6451;42.630;23.382;2023-12-04T06:37:36;10.03;;;7.10;;
12774;SDS011;6451;42.630;23.382;2023-12-04T06:40:07;10.40;;;7.17;;
12774;SDS011;6451;42.630;23.382;2023-12-04T06:42:37;10.17;;;7.67;;
12774;SDS011;6451;42.630;23.382;2023-12-04T06:45:12;8.93;;;6.57;;
12774;SDS011;6451;42.630;23.382;2023-12-04T06:47:40;8.17;;;5.97;;
12774;SDS011;6451;42.630;23.382;2023-12-04T06:50:09;9.67;;;7.00;;
12774;SDS011;6451;42.630;23.382;2023-12-04T06:52:36;10.17;;;6.50;;
12774;SDS011;6451;42.630;23.382;2023-12-04T06:55:03;8.27;;;7.00;;
12774;SDS011;6451;42.630;23.382;2023-12-04T06:57:32;8.57;;;6.07;;
12774;SDS011;6451;42.630;23.382;2023-12-04T07:00:00;9.23;;;6.47;;
12774;SDS011;6451;42.630;23.382;2023-12-04T07:02:28;8.30;;;6.30;;
12774;SDS011;6451;42.630;23.382;2023-12-04T07:04:55;9.17;;;6.37;;
12774;SDS011;6451;42.630;23.382;2023-12-04T07:07:22;8.17;;;6.27;;
12774;SDS011;6451;42.630;23.382;2023-12-04T07:09:49;8.77;;;6.40;;
12774;SDS011;6451;42.630;23.382;2023-12-04T07:12:17;7.57;;;5.83;;
12774;SDS011;6451;42.630;23.382;2023-12-04T07:14:45;9.00;;;7.00;;
12774;SDS011;6451;42.630;23.382;2023-12-04T07:17:12;8.23;;;6.10;;
12774;SDS011;6451;42.630;23.382;2023-12-04T07:19:40;9.63;;;7.33;;
12774;SDS011;6451;42.630;23.382;2023-12-04T07:22:07;9.43;;;7.37;;
12774;SDS011;6451;42.630;23.382;2023-12-04T07:24:34;12.50;;;7.30;;
12774;SDS011;6451;42.630;23.382;2023-12-04T07:27:01;11.00;;;7.07;;
12774;SDS011;6451;42.630;23.382;2023-12-04T07:29:29;10.80;;;6.97;;
12774;SDS011;6451;42.630;23.382;2023-12-04T07:31:58;8.60;;;6.07;;
12774;SDS011;6451;42.630;23.382;2023-12-04T07:34:28;7.50;;;6.20;;
12774;SDS011;6451;42.630;23.382;2023-12-04T07:36:55;9.53;;;6.53;;
12774;SDS011;6451;42.630;23.382;2023-12-04T07:39:22;9.10;;;6.47;;
12774;SDS011;6451;42.630;23.382;2023-12-04T07:41:50;8.87;;;6.17;;
12774;SDS011;6451;42.630;23.382;2023-12-04T07:44:19;9.43;;;5.80;;
12774;SDS011;6451;42.630;23.382;2023-12-04T07:46:46;9.60;;;6.40;;
12774;SDS011;6451;42.630;23.382;2023-12-04T07:49:14;7.90;;;5.40;;
12774;SDS011;6451;42.630;23.382;2023-12-04T07:51:41;7.17;;;5.70;;
12774;SDS011;6451;42.630;23.382;2023-12-04T07:54:08;7.93;;;5.93;;
12774;SDS011;6451;42.630;23.382;2023-12-04T07:56:35;9.50;;;6.80;;
12774;SDS011;6451;42.630;23.382;2023-12-04T07:59:02;8.10;;;5.93;;
12774;SDS011;6451;42.630;23.382;2023-12-04T08:01:29;8.00;;;6.07;;
12774;SDS011;6451;42.630;23.382;2023-12-04T08:03:56;11.50;;;7.10;;
12774;SDS011;6451;42.630;23.382;2023-12-04T08:06:25;10.90;;;6.70;;
12774;SDS011;6451;42.630;23.382;2023-12-04T08:08:53;7.57;;;6.37;;
12774;SDS011;6451;42.630;23.382;2023-12-04T08:11:20;9.07;;;6.70;;
12774;SDS011;6451;42.630;23.382;2023-12-04T08:13:47;8.47;;;6.30;;
12774;SDS011;6451;42.630;23.382;2023-12-04T08:16:14;7.67;;;5.63;;
12774;SDS011;6451;42.630;23.382;2023-12-04T08:18:43;7.33;;;5.60;;
12774;SDS011;6451;42.630;23.382;2023-12-04T08:21:11;8.63;;;5.50;;
12774;SDS011;6451;42.630;23.382;2023-12-04T08:23:44;7.63;;;5.00;;
12774;SDS011;6451;42.630;23.382;2023-12-04T08:26:20;7.53;;;5.47;;
12774;SDS011;6451;42.630;23.382;2023-12-04T08:28:51;9.20;;;6.50;;
12774;SDS011;6451;42.630;23.382;2023-12-04T08:31:23;9.83;;;5.93;;
12774;SDS011;6451;42.630;23.382;2023-12-04T08:33:50;5.93;;;4.90;;
12774;SDS011;6451;42.630;23.382;2023-12-04T08:36:17;6.40;;;5.07;;
12774;SDS011;6451;42.630;23.382;2023-12-04T08:38:48;6.37;;;5.00;;
12774;SDS011;6451;42.630;23.382;2023-12-04T08:41:15;5.67;;;4.67;;
12774;SDS011;6451;42.630;23.382;2023-12-04T08:43:45;10.93;;;5.30;;
12774;SDS011;6451;42.630;23.382;2023-12-04T08:46:12;6.67;;;4.73;;
12774;SDS011;6451;42.630;23.382;2023-12-04T08:48:42;6.70;;;5.20;;
12774;SDS011;6451;42.630;23.382;2023-12-04T08:51:14;6.60;;;4.80;;
12774;SDS011;6451;42.630;23.382;2023-12-04T08:53:42;8.77;;;4.80;;
12774;SDS011;6451;42.630;23.382;2023-12-04T08:56:11;8.23;;;5.40;;
12774;SDS011;6451;42.630;23.382;2023-12-04T08:58:42;7.90;;;5.87;;
12774;SDS011;6451;42.630;23.382;2023-12-04T09:03:44;7.03;;;4.90;;
12774;SDS011;6451;42.630;23.382;2023-12-04T09:06:14;8.97;;;4.80;;
12774;SDS011;6451;42.630;23.382;2023-12-04T09:08:41;6.87;;;4.77;;
12774;SDS011;6451;42.630;23.382;2023-12-04T09:11:08;6.70;;;4.80;;
12774;SDS011;6451;42.630;23.382;2023-12-04T09:13:40;6.87;;;5.43;;
12774;SDS011;6451;42.630;23.382;2023-12-04T09:16:11;8.80;;;4.83;;
12774;SDS011;6451;42.630;23.382;2023-12-04T09:18:47;7.43;;;5.33;;
12774;SDS011;6451;42.630;23.382;2023-12-04T09:21:21;7.17;;;5.17;;
12774;SDS011;6451;42.630;23.382;2023-12-04T09:23:54;6.43;;;4.90;;
12774;SDS011;6451;42.630;23.382;2023-12-04T09:26:22;7.93;;;4.70;;
12774;SDS011;6451;42.630;23.382;2023-12-04T09:28:51;7.53;;;5.03;;
12774;SDS011;6451;42.630;23.382;2023-12-04T09:31:25;7.33;;;5.00;;
12774;SDS011;6451;42.630;23.382;2023-12-04T09:33:52;7.97;;;4.90;;
12774;SDS011;6451;42.630;23.382;2023-12-04T09:36:20;6.97;;;5.00;;
12774;SDS011;6451;42.630;23.382;2023-12-04T09:38:52;8.77;;;5.13;;
12774;SDS011;6451;42.630;23.382;2023-12-04T09:41:19;9.73;;;5.40;;
12774;SDS011;6451;42.630;23.382;2023-12-04T09:43:47;6.50;;;4.70;;
12774;SDS011;6451;42.630;23.382;2023-12-04T09:46:16;10.23;;;5.20;;
12774;SDS011;6451;42.630;23.382;2023-12-04T09:48:43;6.43;;;4.97;;
12774;SDS011;6451;42.630;23.382;2023-12-04T09:51:11;6.10;;;4.80;;
12774;SDS011;6451;42.630;23.382;2023-12-04T09:53:41;8.80;;;5.10;;
12774;SDS011;6451;42.630;23.382;2023-12-04T09:56:08;6.83;;;5.43;;
12774;SDS011;6451;42.630;23.382;2023-12-04T09:58:39;6.77;;;5.03;;
12774;SDS011;6451;42.630;23.382;2023-12-04T10:01:11;5.27;;;4.43;;
12774;SDS011;6451;42.630;23.382;2023-12-04T10:03:40;5.53;;;4.47;;
12774;SDS011;6451;42.630;23.382;2023-12-04T10:06:08;7.13;;;4.87;;
12774;SDS011;6451;42.630;23.382;2023-12-04T10:08:35;6.47;;;5.07;;
12774;SDS011;6451;42.630;23.382;2023-12-04T10:11:02;6.53;;;5.00;;
12774;SDS011;6451;42.630;23.382;2023-12-04T10:13:31;8.20;;;5.27;;
12774;SDS011;6451;42.630;23.382;2023-12-04T10:15:59;5.20;;;4.47;;
12774;SDS011;6451;42.630;23.382;2023-12-04T10:18:26;7.90;;;4.53;;
12774;SDS011;6451;42.630;23.382;2023-12-04T10:20:56;7.23;;;5.20;;
12774;SDS011;6451;42.630;23.382;2023-12-04T10:23:36;5.97;;;4.67;;
12774;SDS011;6451;42.630;23.382;2023-12-04T10:26:04;5.97;;;4.43;;
12774;SDS011;6451;42.630;23.382;2023-12-04T10:28:32;7.23;;;4.83;;
12774;SDS011;6451;42.630;23.382;2023-12-04T10:31:01;8.70;;;6.10;;
12774;SDS011;6451;42.630;23.382;2023-12-04T10:33:32;6.93;;;5.57;;
12774;SDS011;6451;42.630;23.382;2023-12-04T10:36:01;6.93;;;4.80;;
12774;SDS011;6451;42.630;23.382;2023-12-04T10:38:29;6.77;;;4.90;;
12774;SDS011;6451;42.630;23.382;2023-12-04T10:40:59;6.30;;;5.00;;
12774;SDS011;6451;42.630;23.382;2023-12-04T10:43:46;6.33;;;4.47;;
12774;SDS011;6451;42.630;23.382;2023-12-04T10:46:13;8.70;;;5.93;;
12774;SDS011;6451;42.630;23.382;2023-12-04T10:48:41;8.33;;;5.67;;
12774;SDS011;6451;42.630;23.382;2023-12-04T10:51:25;7.87;;;5.43;;
12774;SDS011;6451;42.630;23.382;2023-12-04T10:53:53;6.27;;;4.80;;
12774;SDS011;6451;42.630;23.382;2023-12-04T10:56:25;6.83;;;5.20;;
12774;SDS011;6451;42.630;23.382;2023-12-04T10:58:58;6.73;;;5.10;;
12774;SDS011;6451;42.630;23.382;2023-12-04T11:01:30;8.43;;;5.30;;
12774;SDS011;6451;42.630;23.382;2023-12-04T11:04:02;6.43;;;4.70;;
12774;SDS011;6451;42.630;23.382;2023-12-04T11:06:37;8.17;;;5.60;;
12774;SDS011;6451;42.630;23.382;2023-12-04T11:09:07;7.13;;;5.17;;
12774;SDS011;6451;42.630;23.382;2023-12-04T11:11:36;6.93;;;5.20;;
12774;SDS011;6451;42.630;23.382;2023-12-04T11:14:10;7.50;;;5.77;;
12774;SDS011;6451;42.630;23.382;2023-12-04T11:16:44;9.27;;;5.53;;
12774;SDS011;6451;42.630;23.382;2023-12-04T11:19:15;7.13;;;5.13;;
12774;SDS011;6451;42.630;23.382;2023-12-04T11:21:52;6.47;;;5.20;;
12774;SDS011;6451;42.630;23.382;2023-12-04T11:24:22;7.07;;;5.20;;
12774;SDS011;6451;42.630;23.382;2023-12-04T11:26:54;6.73;;;5.20;;
12774;SDS011;6451;42.630;23.382;2023-12-04T11:29:23;6.77;;;4.83;;
12774;SDS011;6451;42.630;23.382;2023-12-04T11:31:59;5.80;;;4.83;;
12774;SDS011;6451;42.630;23.382;2023-12-04T11:34:26;5.87;;;4.70;;
12774;SDS011;6451;42.630;23.382;2023-12-04T11:36:55;6.30;;;4.63;;
12774;SDS011;6451;42.630;23.382;2023-12-04T11:39:25;6.23;;;4.73;;
12774;SDS011;6451;42.630;23.382;2023-12-04T11:41:53;6.73;;;4.93;;
12774;SDS011;6451;42.630;23.382;2023-12-04T11:44:20;6.27;;;4.63;;
12774;SDS011;6451;42.630;23.382;2023-12-04T11:46:56;6.57;;;5.10;;
12774;SDS011;6451;42.630;23.382;2023-12-04T11:49:29;6.20;;;5.17;;
12774;SDS011;6451;42.630;23.382;2023-12-04T11:51:58;6.80;;;4.83;;
12774;SDS011;6451;42.630;23.382;2023-12-04T11:54:27;7.93;;;5.13;;
12774;SDS011;6451;42.630;23.382;2023-12-04T11:56:58;7.00;;;5.30;;
12774;SDS011;6451;42.630;23.382;2023-12-04T11:59:26;7.83;;;5.60;;
12774;SDS011;6451;42.630;23.382;2023-12-04T12:01:54;7.70;;;5.40;;
12774;SDS011;6451;42.630;23.382;2023-12-04T12:04:23;6.97;;;5.23;;
12774;SDS011;6451;42.630;23.382;2023-12-04T12:06:51;9.03;;;5.47;;
12774;SDS011;6451;42.630;23.382;2023-12-04T12:09:20;8.60;;;5.33;;
12774;SDS011;6451;42.630;23.382;2023-12-04T12:11:49;7.90;;;5.93;;
12774;SDS011;6451;42.630;23.382;2023-12-04T12:14:19;7.57;;;5.90;;
12774;SDS011;6451;42.630;23.382;2023-12-04T12:16:47;10.37;;;6.27;;
12774;SDS011;6451;42.630;23.382;2023-12-04T12:19:14;7.90;;;5.87;;
12774;SDS011;6451;42.630;23.382;2023-12-04T12:21:42;6.77;;;5.33;;
12774;SDS011;6451;42.630;23.382;2023-12-04T12:24:10;8.27;;;5.90;;
12774;SDS011;6451;42.630;23.382;2023-12-04T12:26:39;9.77;;;6.70;;
12774;SDS011;6451;42.630;23.382;2023-12-04T12:29:08;7.07;;;5.70;;
12774;SDS011;6451;42.630;23.382;2023-12-04T12:31:35;7.70;;;5.80;;
12774;SDS011;6451;42.630;23.382;2023-12-04T12:34:02;9.87;;;6.17;;
12774;SDS011;6451;42.630;23.382;2023-12-04T12:36:29;8.30;;;6.20;;
12774;SDS011;6451;42.630;23.382;2023-12-04T12:38:58;7.37;;;5.50;;
12774;SDS011;6451;42.630;23.382;2023-12-04T12:41:25;8.57;;;6.10;;
12774;SDS011;6451;42.630;23.382;2023-12-04T12:43:54;8.37;;;5.83;;
12774;SDS011;6451;42.630;23.382;2023-12-04T12:46:22;9.53;;;6.30;;
12774;SDS011;6451;42.630;23.382;2023-12-04T12:51:19;7.57;;;5.60;;
12774;SDS011;6451;42.630;23.382;2023-12-04T12:53:52;8.80;;;6.17;;
12774;SDS011;6451;42.630;23.382;2023-12-04T12:56:23;7.53;;;6.13;;
12774;SDS011;6451;42.630;23.382;2023-12-04T12:58:55;9.83;;;6.77;;
12774;SDS011;6451;42.630;23.382;2023-12-04T13:01:22;11.33;;;7.97;;
12774;SDS011;6451;42.630;23.382;2023-12-04T13:03:56;13.00;;;7.57;;
12774;SDS011;6451;42.630;23.382;2023-12-04T13:06:23;10.33;;;7.33;;
12774;SDS011;6451;42.630;23.382;2023-12-04T13:08:51;10.90;;;7.63;;
12774;SDS011;6451;42.630;23.382;2023-12-04T13:11:18;10.20;;;7.67;;
12774;SDS011;6451;42.630;23.382;2023-12-04T13:13:48;11.60;;;7.83;;
12774;SDS011;6451;42.630;23.382;2023-12-04T13:16:16;10.13;;;7.63;;
12774;SDS011;6451;42.630;23.382;2023-12-04T13:18:43;10.23;;;8.13;;
12774;SDS011;6451;42.630;23.382;2023-12-04T13:21:11;12.50;;;8.37;;
12774;SDS011;6451;42.630;23.382;2023-12-04T13:23:39;15.93;;;9.33;;
12774;SDS011;6451;42.630;23.382;2023-12-04T13:26:10;12.83;;;8.70;;
12774;SDS011;6451;42.630;23.382;2023-12-04T13:28:37;19.17;;;9.30;;
12774;SDS011;6451;42.630;23.382;2023-12-04T13:31:05;13.07;;;8.63;;
12774;SDS011;6451;42.630;23.382;2023-12-04T13:33:38;13.03;;;8.83;;
12774;SDS011;6451;42.630;23.382;2023-12-04T13:36:05;16.60;;;8.90;;
12774;SDS011;6451;42.630;23.382;2023-12-04T13:38:33;9.90;;;7.57;;
12774;SDS011;6451;42.630;23.382;2023-12-04T13:41:00;11.90;;;8.07;;
12774;SDS011;6451;42.630;23.382;2023-12-04T13:43:54;9.90;;;7.77;;
12774;SDS011;6451;42.630;23.382;2023-12-04T13:46:21;11.97;;;8.40;;
12774;SDS011;6451;42.630;23.382;2023-12-04T13:48:50;13.17;;;7.50;;
12774;SDS011;6451;42.630;23.382;2023-12-04T13:51:17;9.70;;;7.70;;
12774;SDS011;6451;42.630;23.382;2023-12-04T13:53:45;13.40;;;8.50;;
12774;SDS011;6451;42.630;23.382;2023-12-04T13:56:15;10.83;;;8.20;;
12774;SDS011;6451;42.630;23.382;2023-12-04T13:59:00;10.70;;;8.03;;
12774;SDS011;6451;42.630;23.382;2023-12-04T14:01:30;13.03;;;8.57;;
12774;SDS011;6451;42.630;23.382;2023-12-04T14:04:08;13.57;;;8.70;;
12774;SDS011;6451;42.630;23.382;2023-12-04T14:06:38;11.37;;;7.97;;
12774;SDS011;6451;42.630;23.382;2023-12-04T14:09:05;11.67;;;8.57;;
12774;SDS011;6451;42.630;23.382;2023-12-04T14:11:36;10.27;;;7.57;;
12774;SDS011;6451;42.630;23.382;2023-12-04T14:14:07;12.10;;;7.63;;
12774;SDS011;6451;42.630;23.382;2023-12-04T14:16:35;9.67;;;7.83;;
12774;SDS011;6451;42.630;23.382;2023-12-04T14:19:02;12.63;;;8.10;;
12774;SDS011;6451;42.630;23.382;2023-12-04T14:21:33;10.50;;;7.67;;
12774;SDS011;6451;42.630;23.382;2023-12-04T14:24:00;12.27;;;8.47;;
12774;SDS011;6451;42.630;23.382;2023-12-04T14:26:28;10.13;;;7.50;;
12774;SDS011;6451;42.630;23.382;2023-12-04T14:28:55;12.97;;;8.20;;
12774;SDS011;6451;42.630;23.382;2023-12-04T14:31:26;14.00;;;8.87;;
12774;SDS011;6451;42.630;23.382;2023-12-04T14:33:57;14.30;;;9.40;;
12774;SDS011;6451;42.630;23.382;2023-12-04T14:36:25;14.00;;;8.80;;
12774;SDS011;6451;42.630;23.382;2023-12-04T14:38:58;13.10;;;9.00;;
12774;SDS011;6451;42.630;23.382;2023-12-04T14:41:28;15.77;;;9.13;;
12774;SDS011;6451;42.630;23.382;2023-12-04T14:43:55;17.77;;;9.93;;
12774;SDS011;6451;42.630;23.382;2023-12-04T14:46:25;15.57;;;10.70;;
12774;SDS011;6451;42.630;23.382;2023-12-04T14:48:52;17.47;;;11.13;;
12774;SDS011;6451;42.630;23.382;2023-12-04T14:51:19;15.67;;;11.07;;
12774;SDS011;6451;42.630;23.382;2023-12-04T14:53:46;16.70;;;11.33;;
12774;SDS011;6451;42.630;23.382;2023-12-04T14:56:17;21.97;;;12.13;;
12774;SDS011;6451;42.630;23.382;2023-12-04T14:58:51;19.27;;;12.20;;
12774;SDS011;6451;42.630;23.382;2023-12-04T15:01:56;14.93;;;11.87;;